Time;durP1;ratioP1;P1;durP2;ratioP2;P2;SDS_P1;SDS_P2;PMS_P1;PMS_P2;Temp;Humidity;BMP_temperature;BMP_pressure;BME280_temperature;BME280_humidity;BME280_pressure;Samples;Min_cycle;Max_cycle;Signal;HPM_P1;HPM_P2
2021/07/16 00:01:35;;;;;;;9.90;8.45;;;;;;;22.45;66.56;100025.88;4899410;28;96617;-84
2021/07/16 00:04:00;;;;;;;10.98;8.32;;;;;;;22.34;66.82;100025.00;4899734;28;97007;-83
2021/07/16 00:06:26;;;;;;;10.52;7.80;;;;;;;22.37;66.71;100032.75;4898952;28;98125;-83
2021/07/16 00:08:51;;;;;;;9.15;8.18;;;;;;;22.31;67.01;100030.63;4899289;28;99303;-83
2021/07/16 00:11:17;;;;;;;9.60;7.95;;;;;;;22.26;67.07;100035.50;4899055;28;96609;-83
2021/07/16 00:13:43;;;;;;;12.02;7.68;;;;;;;22.10;67.53;100022.59;4916399;28;96833;-83
2021/07/16 00:16:08;;;;;;;36.10;24.35;;;;;;;22.38;66.80;100046.97;4899270;28;101719;-83
2021/07/16 00:18:34;;;;;;;42.35;30.35;;;;;;;22.42;66.68;100048.38;4898588;28;101062;-84
2021/07/16 00:21:01;;;;;;;73.40;57.13;;;;;;;22.34;67.00;100043.72;4899073;28;97117;-83
2021/07/16 00:23:28;;;;;;;96.70;76.30;;;;;;;22.29;66.68;100016.53;4899224;28;96984;-83
2021/07/16 00:25:54;;;;;;;46.40;33.97;;;;;;;22.47;66.67;100043.47;4914580;28;101698;-83
2021/07/16 00:28:20;;;;;;;48.97;37.78;;;;;;;22.51;66.43;100046.72;4898232;28;101520;-83
2021/07/16 00:30:45;;;;;;;12.35;10.18;;;;;;;22.27;66.57;100021.16;4899528;28;96642;-83
2021/07/16 00:33:11;;;;;;;9.70;7.80;;;;;;;22.17;67.30;100033.66;4915699;28;97347;-83
2021/07/16 00:35:36;;;;;;;11.52;8.23;;;;;;;21.98;67.39;100002.28;4898659;28;101992;-83
2021/07/16 00:38:02;;;;;;;13.18;10.18;;;;;;;22.18;67.23;100042.50;4899505;28;101372;-84
2021/07/16 00:40:28;;;;;;;21.40;16.35;;;;;;;22.17;67.47;100043.47;4882585;28;96704;-83
2021/07/16 00:42:53;;;;;;;15.52;12.55;;;;;;;22.17;67.48;100043.47;4899228;28;97157;-83
2021/07/16 00:45:19;;;;;;;10.48;8.80;;;;;;;22.22;67.31;100057.28;4896611;28;101280;-83
2021/07/16 00:47:46;;;;;;;11.75;8.80;;;;;;;22.38;66.96;100060.31;4898277;28;101317;-83
2021/07/16 00:50:14;;;;;;;8.55;7.75;;;;;;;22.25;67.03;100059.69;4899386;28;97241;-83
2021/07/16 00:52:40;;;;;;;17.27;7.15;;;;;;;22.12;67.28;100046.53;4899465;28;97048;-83
2021/07/16 00:55:07;;;;;;;9.82;8.30;;;;;;;22.08;67.65;100053.97;4898399;28;101199;-83
2021/07/16 00:57:33;;;;;;;10.52;8.35;;;;;;;22.02;67.74;100049.16;4882175;28;101229;-83
2021/07/16 00:59:59;;;;;;;8.70;7.70;;;;;;;22.00;67.96;100039.56;4899025;28;96615;-83
2021/07/16 01:02:26;;;;;;;11.23;7.50;;;;;;;21.93;67.95;100041.91;4899004;28;96796;-83
2021/07/16 01:04:52;;;;;;;8.55;7.65;;;;;;;21.94;67.66;100043.63;4882614;28;100754;-83
2021/07/16 01:07:18;;;;;;;9.00;8.10;;;;;;;22.02;67.43;100042.94;4882063;28;101359;-83
2021/07/16 01:09:45;;;;;;;8.95;8.07;;;;;;;22.02;67.43;100040.25;4914785;28;97124;-83
2021/07/16 01:12:10;;;;;;;10.25;7.93;;;;;;;22.06;67.17;100044.38;4899264;28;96928;-83
2021/07/16 01:14:36;;;;;;;14.68;8.18;;;;;;;21.86;67.41;100017.53;4897292;28;101905;-83
2021/07/16 01:17:02;;;;;;;13.85;8.70;;;;;;;21.83;67.58;100017.81;4898319;28;98103;-83
2021/07/16 01:19:38;;;;;;;9.65;8.75;;;;;;;21.62;67.55;99991.13;4898379;28;97040;-83
2021/07/16 01:22:03;;;;;;;10.60;8.48;;;;;;;21.79;67.94;100039.59;4898897;28;96849;-83
2021/07/16 01:24:29;;;;;;;15.23;9.13;;;;;;;21.72;67.56;100003.69;4897629;28;100960;-83
2021/07/16 01:26:55;;;;;;;11.00;8.40;;;;;;;21.86;67.69;100030.06;4898672;28;101666;-83
2021/07/16 01:29:21;;;;;;;10.98;8.05;;;;;;;21.83;67.77;100025.00;4897858;28;96588;-83
2021/07/16 01:31:47;;;;;;;13.63;8.73;;;;;;;21.73;68.04;100021.41;4898512;28;96910;-83
2021/07/16 01:34:12;;;;;;;12.55;9.18;;;;;;;21.87;67.87;100026.41;4897862;28;101756;-84
2021/07/16 01:36:38;;;;;;;13.30;9.93;;;;;;;;;;4897552;28;101218;-83
2021/07/16 01:39:04;;;;;;;17.00;10.48;;;;;;;21.69;67.87;100016.31;4914638;28;96619;-83
2021/07/16 01:41:30;;;;;;;10.88;9.15;;;;;;;21.78;67.75;100012.00;4913912;28;96934;-83
2021/07/16 01:43:55;;;;;;;13.07;9.43;;;;;;;21.69;67.98;99994.09;4898097;28;101349;-83
2021/07/16 01:46:21;;;;;;;12.18;8.30;;;;;;;21.82;67.66;100010.78;4881616;28;101964;-84
2021/07/16 01:48:46;;;;;;;10.90;8.85;;;;;;;21.78;67.73;100013.84;4897792;28;96924;-84
2021/07/16 01:51:12;;;;;;;12.05;7.68;;;;;;;21.83;67.50;100017.81;4898853;28;97160;-83
2021/07/16 01:53:38;;;;;;;10.85;8.43;;;;;;;21.65;68.19;100016.72;4897252;28;100449;-83
2021/07/16 01:56:04;;;;;;;11.20;8.30;;;;;;;21.66;68.11;100015.75;4881781;28;100961;-84
2021/07/16 01:58:29;;;;;;;10.82;8.60;;;;;;;21.48;68.58;100018.16;4913134;28;97207;-83
2021/07/16 02:00:55;;;;;;;11.55;8.50;;;;;;;21.51;68.60;100030.41;4898165;28;96984;-84
2021/07/16 02:03:20;;;;;;;11.07;8.43;;;;;;;21.35;69.13;100036.13;4898040;28;98025;-83
2021/07/16 02:05:47;;;;;;;13.40;9.20;;;;;;;21.25;69.45;100009.38;4897156;28;102138;-83
2021/07/16 02:08:18;;;;;;;9.65;8.35;;;;;;;21.43;68.51;100015.84;4914340;28;96681;-83
2021/07/16 02:10:46;;;;;;;12.75;8.93;;;;;;;21.39;68.96;100032.28;4914152;28;96755;-83
2021/07/16 02:13:12;;;;;;;12.05;7.80;;;;;;;21.48;68.78;100026.16;4897752;28;98204;-83
2021/07/16 02:15:40;;;;;;;10.43;8.35;;;;;;;21.52;68.66;100024.91;4897369;28;101078;-84
2021/07/16 02:18:05;;;;;;;11.05;8.00;;;;;;;21.49;68.54;100022.50;4898173;28;96667;-83
2021/07/16 02:20:33;;;;;;;9.00;7.70;;;;;;;21.44;68.82;100027.41;4897100;28;97007;-84
2021/07/16 02:23:00;;;;;;;10.95;8.32;;;;;;;21.40;68.71;100023.28;4913378;28;98089;-83
2021/07/16 02:25:28;;;;;;;14.82;7.97;;;;;;;21.52;68.49;100014.22;4880867;28;100227;-83
2021/07/16 02:27:58;;;;;;;13.32;7.68;;;;;;;21.46;68.20;99996.91;4897814;28;96943;-83
2021/07/16 02:30:26;;;;;;;9.98;7.38;;;;;;;21.39;68.52;100005.56;4913321;28;96978;-83
2021/07/16 02:32:53;;;;;;;11.40;7.97;;;;;;;21.48;68.54;100015.47;4897448;28;101751;-83
2021/07/16 02:35:18;;;;;;;10.35;7.57;;;;;;;21.41;68.68;100015.16;4897357;28;100855;-83
2021/07/16 02:37:44;;;;;;;13.77;7.60;;;;;;;21.53;68.45;100020.44;4897017;28;96606;-83
2021/07/16 02:40:11;;;;;;;8.52;7.13;;;;;;;21.51;68.56;100025.06;4897926;28;97007;-83
2021/07/16 02:42:37;;;;;;;13.10;7.50;;;;;;;21.40;68.64;100016.13;4880716;28;101045;-84
2021/07/16 02:45:08;;;;;;;12.00;7.90;;;;;;;21.43;68.84;100023.88;4897217;28;101800;-83
2021/07/16 02:47:38;;;;;;;11.02;7.35;;;;;;;21.44;68.71;100025.56;4880142;28;97248;-83
2021/07/16 02:50:09;;;;;;;14.25;7.60;;;;;;;21.54;68.29;100028.31;4897687;28;97257;-83
2021/07/16 02:52:34;;;;;;;15.80;8.00;;;;;;;21.33;68.43;100001.56;4896835;28;98646;-83
2021/07/16 02:55:00;;;;;;;13.35;7.93;;;;;;;21.28;68.96;100006.44;4912910;28;98444;-83
2021/07/16 02:57:25;;;;;;;18.50;7.88;;;;;;;21.30;69.35;100015.19;4897149;28;96693;-84
2021/07/16 02:59:51;;;;;;;16.20;7.97;;;;;;;21.41;68.77;100011.63;4881407;28;96917;-83
2021/07/16 03:02:16;;;;;;;16.08;8.68;;;;;;;21.43;68.91;100017.69;4881077;28;101266;-83
2021/07/16 03:04:43;;;;;;;12.43;7.47;;;;;;;21.35;68.66;100001.41;4896711;28;99877;-83
2021/07/16 03:07:09;;;;;;;14.15;7.97;;;;;;;21.37;68.40;100010.19;4897709;28;96667;-83
2021/07/16 03:09:34;;;;;;;11.98;6.93;;;;;;;21.48;68.47;100016.31;4914808;28;96985;-83
2021/07/16 03:12:02;;;;;;;10.90;8.10;;;;;;;21.50;68.30;100013.53;4917393;28;98643;-83
2021/07/16 03:14:28;;;;;;;15.88;7.80;;;;;;;21.55;68.04;100019.31;4899762;28;101304;-83
2021/07/16 03:16:53;;;;;;;12.73;7.82;;;;;;;21.38;68.68;100023.44;4900594;28;96581;-83
2021/07/16 03:19:19;;;;;;;13.57;7.25;;;;;;;21.40;68.79;100025.94;4900406;28;96973;-83
2021/07/16 03:21:44;;;;;;;17.67;8.55;;;;;;;21.42;68.75;100024.00;4899706;28;98518;-83
2021/07/16 03:24:10;;;;;;;13.00;8.60;;;;;;;21.37;69.00;100024.38;4899841;28;98315;-84
2021/07/16 03:26:37;;;;;;;15.18;8.15;;;;;;;21.25;69.23;99999.53;4915555;28;96994;-84
2021/07/16 03:29:03;;;;;;;17.77;7.95;;;;;;;21.42;68.83;100018.66;4901262;28;96958;-83
2021/07/16 03:31:29;;;;;;;17.67;8.35;;;;;;;21.49;68.59;100030.50;4899453;28;102255;-84
2021/07/16 03:33:54;;;;;;;16.73;7.97;;;;;;;21.46;68.86;100018.25;4899819;28;101577;-84
2021/07/16 03:36:21;;;;;;;11.75;7.15;;;;;;;21.61;68.48;100029.50;4900484;28;96713;-83
2021/07/16 03:38:47;;;;;;;11.80;7.15;;;;;;;21.62;68.32;100020.50;4916165;28;96733;-83
2021/07/16 03:41:14;;;;;;;14.52;7.35;;;;;;;21.73;67.78;100013.38;4900346;28;98480;-83
2021/07/16 03:43:39;;;;;;;11.25;7.28;;;;;;;21.65;68.04;100022.06;4899200;28;101205;-83
2021/07/16 03:46:05;;;;;;;11.88;8.35;;;;;;;21.62;67.95;100023.16;4899638;28;97126;-83
2021/07/16 03:48:32;;;;;;;12.30;7.55;;;;;;;21.68;67.89;100036.00;4898965;28;97207;-82
2021/07/16 03:50:58;;;;;;;10.40;7.10;;;;;;;21.64;67.85;100028.38;4884007;28;101376;-83
2021/07/16 03:53:23;;;;;;;16.30;7.68;;;;;;;21.72;67.90;100041.91;4902811;28;101320;-84
2021/07/16 03:55:49;;;;;;;13.10;6.93;;;;;;;21.73;67.80;100054.31;4933710;28;96806;-83
2021/07/16 03:58:15;;;;;;;13.95;7.50;;;;;;;21.74;67.66;100055.16;4918174;28;96886;-84
2021/07/16 04:00:40;;;;;;;11.60;7.10;;;;;;;21.78;67.75;100056.59;4900829;28;100472;-84
2021/07/16 04:03:06;;;;;;;15.80;7.47;;;;;;;21.69;67.74;100048.38;4918658;28;101414;-84
2021/07/16 04:05:33;;;;;;;17.27;7.15;;;;;;;21.82;67.41;100053.53;4934512;28;96551;-84
2021/07/16 04:08:06;;;;;;;13.40;6.28;;;;;;;21.80;67.47;100046.63;4903027;28;96926;-84
2021/07/16 04:10:34;;;;;;;11.48;6.72;;;;;;;21.85;67.43;100058.63;4934435;28;100892;-83
2021/07/16 04:13:02;;;;;;;13.77;6.65;;;;;;;22.00;67.08;100060.94;4902635;28;101719;-83
2021/07/16 04:15:28;;;;;;;16.63;6.38;;;;;;;21.85;67.46;100055.94;4919277;28;97298;-83
2021/07/16 04:17:55;;;;;;;9.32;6.53;;;;;;;21.93;67.28;100065.94;4902527;28;96998;-84
2021/07/16 04:20:20;;;;;;;13.73;6.40;;;;;;;21.78;67.71;100052.09;4917952;28;101500;-83
2021/07/16 04:22:46;;;;;;;17.40;6.68;;;;;;;21.80;67.93;100059.97;4934113;28;98422;-83
2021/07/16 04:25:19;;;;;;;15.30;6.65;;;;;;;21.83;67.75;100060.56;4918306;28;96554;-83
2021/07/16 04:27:47;;;;;;;9.48;6.28;;;;;;;21.94;67.37;100065.00;4902600;28;97233;-83
2021/07/16 04:30:13;;;;;;;22.70;6.75;;;;;;;21.99;67.27;100077.94;4918392;28;101756;-83
2021/07/16 04:32:39;;;;;;;11.68;6.35;;;;;;;21.95;67.31;100061.34;4901630;28;101932;-84
2021/07/16 04:35:05;;;;;;;13.38;6.70;;;;;;;21.82;67.35;100060.72;4918573;28;97228;-83
2021/07/16 04:37:31;;;;;;;16.15;6.25;;;;;;;21.94;67.42;100070.34;4902340;28;97428;-83
2021/07/16 04:39:56;;;;;;;12.88;6.78;;;;;;;22.00;67.47;100071.63;4918136;28;98017;-83
2021/07/16 04:42:22;;;;;;;12.20;6.00;;;;;;;22.03;67.06;100072.22;4918472;28;100666;-83
2021/07/16 04:44:48;;;;;;;14.30;6.10;;;;;;;21.95;67.47;100080.03;4917899;28;97052;-83
2021/07/16 04:47:14;;;;;;;14.90;6.40;;;;;;;21.96;67.17;100075.53;4902141;28;97189;-83
2021/07/16 04:49:39;;;;;;;13.85;6.20;;;;;;;22.00;67.21;100077.81;4901202;28;101410;-84
2021/07/16 04:52:05;;;;;;;10.63;5.72;;;;;;;22.06;67.07;100077.28;4936022;28;98164;-83
2021/07/16 04:54:30;;;;;;;16.27;5.80;;;;;;;22.16;66.79;100072.00;4902373;28;97212;-83
2021/07/16 04:56:56;;;;;;;16.58;5.18;;;;;;;22.29;66.53;100069.16;4917704;28;97090;-83
2021/07/16 04:59:22;;;;;;;14.98;6.05;;;;;;;22.35;65.94;100048.06;4933970;28;97517;-84
2021/07/16 05:01:48;;;;;;;9.98;5.70;;;;;;;22.41;66.32;100072.59;4901301;28;101020;-83
2021/07/16 05:04:15;;;;;;;19.17;6.38;;;;;;;22.10;66.68;100046.63;4902476;28;96635;-84
2021/07/16 05:06:41;;;;;;;13.85;5.80;;;;;;;22.29;66.79;100087.88;4917784;28;96987;-84
2021/07/16 05:09:06;;;;;;;10.57;6.22;;;;;;;22.34;66.72;100094.50;4933580;28;101369;-84
2021/07/16 05:11:32;;;;;;;10.10;5.07;;;;;;;22.28;66.66;100091.50;4933685;28;100865;-84
2021/07/16 05:13:58;;;;;;;11.20;6.28;;;;;;;22.34;66.55;100097.19;4901129;28;96766;-83
2021/07/16 05:16:24;;;;;;;16.02;5.80;;;;;;;22.32;66.39;100099.13;4902036;28;96842;-83
2021/07/16 05:18:50;;;;;;;16.08;5.50;;;;;;;22.23;66.35;100061.69;4900760;28;101083;-84
2021/07/16 05:21:16;;;;;;;12.52;5.78;;;;;;;22.61;65.65;100103.78;4901630;28;101166;-84
2021/07/16 05:23:42;;;;;;;7.93;5.10;;;;;;;22.72;65.47;100114.38;4901247;28;96588;-83
2021/07/16 05:26:08;;;;;;;17.13;5.40;;;;;;;22.84;64.99;100101.75;4901502;28;96854;-83
2021/07/16 05:28:34;;;;;;;13.60;6.07;;;;;;;23.03;64.18;100091.09;4933622;28;101511;-83
2021/07/16 05:30:59;;;;;;;11.90;5.80;;;;;;;23.31;63.95;100123.44;4932949;28;101839;-83
2021/07/16 05:33:25;;;;;;;10.80;5.63;;;;;;;23.26;64.64;100131.03;4901832;28;97136;-83
2021/07/16 05:35:52;;;;;;;14.77;5.70;;;;;;;23.27;64.10;100122.00;4917651;28;96930;-83
2021/07/16 05:38:18;;;;;;;8.40;5.45;;;;;;;23.20;64.45;100129.75;4933050;28;101160;-84
2021/07/16 05:40:44;;;;;;;11.20;5.35;;;;;;;23.19;64.25;100127.22;4900469;28;101188;-84
2021/07/16 05:43:11;;;;;;;12.30;5.63;;;;;;;23.08;64.31;100109.44;4901728;28;97312;-83
2021/07/16 05:45:38;;;;;;;11.13;5.43;;;;;;;23.19;64.43;100116.50;4933447;28;96911;-83
2021/07/16 05:48:05;;;;;;;5.85;5.22;;;;;;;23.19;64.23;100125.38;4916690;28;101805;-84
2021/07/16 05:50:31;;;;;;;9.95;4.97;;;;;;;23.18;63.97;100118.31;4901042;28;102697;-83
2021/07/16 05:52:56;;;;;;;10.73;5.63;;;;;;;23.16;64.47;100132.84;4900632;28;96667;-84
2021/07/16 05:55:22;;;;;;;14.07;5.45;;;;;;;23.15;64.71;100137.34;4918024;28;96793;-84
2021/07/16 05:57:48;;;;;;;12.45;5.88;;;;;;;23.16;64.67;100143.56;4916470;28;98022;-83
2021/07/16 06:00:15;;;;;;;14.75;6.78;;;;;;;23.28;64.18;100132.59;4916920;28;102383;-83
2021/07/16 06:02:40;;;;;;;14.07;7.03;;;;;;;23.24;64.02;100112.44;4916249;28;96652;-83
2021/07/16 06:05:06;;;;;;;12.57;6.43;;;;;;;23.43;64.17;100132.19;4901234;28;96911;-84
2021/07/16 06:07:32;;;;;;;11.38;5.75;;;;;;;23.48;64.31;100129.94;4917180;28;98552;-83
2021/07/16 06:09:58;;;;;;;15.30;5.78;;;;;;;23.60;63.76;100118.09;4916361;28;101074;-83
2021/07/16 06:12:23;;;;;;;8.68;5.30;;;;;;;23.55;63.35;100096.25;4901409;28;96775;-84
2021/07/16 06:14:55;;;;;;;13.18;6.25;;;;;;;24.92;60.44;100118.25;4900433;28;97039;-84
2021/07/16 06:17:26;;;;;;;12.75;6.00;;;;;;;26.24;57.31;100108.59;4918380;28;97812;-84
2021/07/16 06:19:52;;;;;;;9.55;4.88;;;;;;;26.75;55.93;100125.72;4907636;28;100857;-84
2021/07/16 06:22:17;;;;;;;14.80;5.30;;;;;;;28.05;52.91;100123.50;4907947;28;96798;-84
2021/07/16 06:24:43;;;;;;;11.73;5.95;;;;;;;28.68;51.84;100114.56;4906964;28;96975;-86
2021/07/16 06:27:09;;;;;;;11.82;5.78;;;;;;;29.37;50.70;100122.88;4902325;28;101283;-84
2021/07/16 06:29:34;;;;;;;7.97;4.75;;;;;;;29.16;50.50;100120.81;4898796;28;101118;-84
2021/07/16 06:32:00;;;;;;;11.55;5.47;;;;;;;30.66;47.85;100105.69;4908671;28;97275;-84
2021/07/16 06:34:25;;;;;;;8.20;5.00;;;;;;;31.24;46.41;100122.06;4905757;28;97009;-85
2021/07/16 06:36:52;;;;;;;14.25;5.78;;;;;;;31.35;45.57;100096.31;4885128;28;101661;-85
2021/07/16 06:39:18;;;;;;;11.05;4.60;;;;;;;32.28;43.97;100099.84;4903897;28;101122;-85
2021/07/16 06:41:44;;;;;;;8.90;5.00;;;;;;;32.37;43.59;100112.22;4906958;28;96696;-85
2021/07/16 06:44:10;;;;;;;8.80;5.03;;;;;;;30.05;47.55;100101.41;4891957;28;96916;-84
2021/07/16 06:46:36;;;;;;;9.93;5.10;;;;;;;28.61;50.33;100095.53;4902571;28;101044;-84
2021/07/16 06:49:03;;;;;;;11.73;5.30;;;;;;;28.31;51.61;100099.00;4903282;28;101393;-86
2021/07/16 06:51:30;;;;;;;11.23;6.22;;;;;;;27.99;51.78;100088.09;4919926;28;97044;-92
2021/07/16 06:53:56;;;;;;;11.40;6.32;;;;;;;28.23;51.74;100112.50;4913504;28;97077;-91
2021/07/16 06:56:22;;;;;;;9.95;5.90;;;;;;;28.12;52.04;100114.53;4908409;28;101435;-87
2021/07/16 06:58:47;;;;;;;17.55;7.05;;;;;;;28.12;51.48;100098.34;4925970;28;98532;-87
2021/07/16 07:01:13;;;;;;;14.73;6.15;;;;;;;29.26;50.19;100116.00;4927875;28;96660;-86
2021/07/16 07:03:38;;;;;;;12.40;6.18;;;;;;;29.48;49.25;100113.50;4929198;28;97305;-86
2021/07/16 07:06:05;;;;;;;13.65;6.63;;;;;;;31.60;45.40;100109.50;4907173;28;100558;-85
2021/07/16 07:08:31;;;;;;;10.40;6.82;;;;;;;32.11;44.52;100103.91;4920326;28;101411;-87
2021/07/16 07:10:56;;;;;;;12.55;4.85;;;;;;;32.84;43.20;100101.63;4921437;28;97056;-88
2021/07/16 07:13:22;;;;;;;9.05;5.20;;;;;;;31.90;44.87;100102.91;4905276;28;97085;-88
2021/07/16 07:15:47;;;;;;;7.70;5.18;;;;;;;32.02;44.78;100086.91;4903465;28;101624;-88
2021/07/16 07:18:13;;;;;;;12.38;5.10;;;;;;;33.31;42.62;100110.81;4904663;28;101090;-89
2021/07/16 07:20:38;;;;;;;9.95;5.50;;;;;;;32.93;42.73;100089.56;4937405;28;97199;-88
2021/07/16 07:23:05;;;;;;;21.05;7.43;;;;;;;32.33;44.70;100112.84;4937408;28;97009;-87
2021/07/16 07:25:30;;;;;;;44.65;8.60;;;;;;;33.67;41.90;100099.59;4904618;28;101709;-86
2021/07/16 07:27:57;;;;;;;17.23;6.03;;;;;;;33.62;41.55;100112.13;4918943;28;98055;-87
2021/07/16 07:30:23;;;;;;;13.88;5.45;;;;;;;33.51;41.97;100116.28;4928580;28;96875;-88
2021/07/16 07:32:49;;;;;;;12.60;5.18;;;;;;;34.86;39.90;100106.75;4915135;28;96940;-89
2021/07/16 07:35:15;;;;;;;12.57;4.88;;;;;;;36.05;38.34;100104.38;4906835;28;101229;-87
2021/07/16 07:37:41;;;;;;;8.45;4.72;;;;;;;37.16;36.13;100070.50;4914448;28;101323;-88
2021/07/16 07:40:13;;;;;;;7.45;4.95;;;;;;;35.06;39.05;100103.97;4921963;28;96928;-88
2021/07/16 07:42:39;;;;;;;8.88;4.90;;;;;;;33.82;41.20;100102.09;4918532;28;96918;-88
2021/07/16 07:45:06;;;;;;;7.57;5.03;;;;;;;33.09;42.63;100110.94;4937270;28;98589;-88
2021/07/16 07:47:33;;;;;;;11.90;4.97;;;;;;;32.08;44.41;100096.16;4889181;28;100842;-87
2021/07/16 07:50:12;;;;;;;84.18;16.67;;;;;;;32.04;44.28;100114.72;4902072;28;97255;-81
2021/07/16 07:52:38;;;;;;;52.83;10.40;;;;;;;31.89;44.93;100120.19;4916839;28;97168;-90
2021/07/16 07:55:03;;;;;;;8.05;5.55;;;;;;;31.32;46.33;100108.34;4900385;28;101165;-85
2021/07/16 07:57:29;;;;;;;9.40;5.65;;;;;;;31.18;46.58;100111.09;4919335;28;98550;-84
2021/07/16 07:59:55;;;;;;;10.82;5.40;;;;;;;31.09;46.99;100094.97;4899669;28;97156;-84
2021/07/16 08:02:20;;;;;;;7.18;5.07;;;;;;;30.76;47.65;100110.78;4901801;28;98076;-84
2021/07/16 08:04:46;;;;;;;8.48;4.70;;;;;;;30.61;48.28;100118.09;4914791;28;101204;-84
2021/07/16 08:07:11;;;;;;;6.78;4.88;;;;;;;30.53;48.39;100121.72;4899336;28;98568;-84
2021/07/16 08:09:38;;;;;;;6.63;5.65;;;;;;;30.42;48.26;100123.03;4900214;28;96776;-88
2021/07/16 08:12:06;;;;;;;7.70;5.35;;;;;;;30.28;48.77;100120.31;4885078;28;96874;-89
2021/07/16 08:14:31;;;;;;;6.45;5.75;;;;;;;30.36;48.83;100131.91;4901347;28;97208;-88
2021/07/16 08:16:57;;;;;;;9.75;5.47;;;;;;;30.37;48.79;100130.88;4916173;28;101552;-88
2021/07/16 08:19:23;;;;;;;15.77;8.75;;;;;;;30.40;47.84;100103.44;4887013;28;97143;-84
2021/07/16 08:21:52;;;;;;;6.22;5.22;;;;;;;31.34;46.87;100132.56;4888953;28;96916;-84
2021/07/16 08:24:18;;;;;;;11.30;5.20;;;;;;;33.13;44.15;100131.28;4890104;28;101382;-84
2021/07/16 08:26:46;;;;;;;9.75;5.50;;;;;;;34.85;40.87;100118.72;4925739;28;98110;-84
2021/07/16 08:29:12;;;;;;;9.40;4.72;;;;;;;35.75;39.48;100110.50;4895734;28;97162;-83
2021/07/16 08:31:38;;;;;;;9.43;4.53;;;;;;;36.61;38.75;100135.34;4896613;28;96883;-84
2021/07/16 08:34:04;;;;;;;7.60;5.40;;;;;;;37.37;37.13;100125.78;4916885;28;101635;-84
2021/07/16 08:36:29;;;;;;;9.63;4.80;;;;;;;37.71;36.44;100126.13;4890489;28;100891;-85
2021/07/16 08:38:55;;;;;;;10.80;5.50;;;;;;;38.12;36.19;100121.69;4917350;28;96794;-85
2021/07/16 08:41:21;;;;;;;5.75;4.80;;;;;;;38.52;35.64;100123.69;4899680;28;97226;-85
2021/07/16 08:43:48;;;;;;;9.77;4.60;;;;;;;38.36;35.61;100117.84;4903699;28;101630;-85
2021/07/16 08:46:15;;;;;;;6.95;4.40;;;;;;;38.23;35.53;100118.13;4901541;28;101446;-84
2021/07/16 08:48:42;;;;;;;5.32;4.82;;;;;;;38.41;35.26;100119.91;4896675;28;97613;-85
2021/07/16 08:51:13;;;;;;;5.10;4.60;;;;;;;39.11;34.26;100091.47;4895054;28;97001;-84
2021/07/16 08:53:38;;;;;;;6.38;4.38;;;;;;;39.52;33.76;100101.31;4899148;28;101414;-85
2021/07/16 08:56:04;;;;;;;8.82;5.38;;;;;;;40.00;33.41;100099.06;4881607;28;100850;-85
2021/07/16 08:58:30;;;;;;;5.65;4.57;;;;;;;39.24;32.48;100084.84;4893602;28;96755;-85
2021/07/16 09:00:55;;;;;;;8.18;4.63;;;;;;;39.10;33.57;100089.81;4897690;28;96997;-85
2021/07/16 09:03:21;;;;;;;12.20;6.07;;;;;;;39.93;33.34;100096.50;4885346;28;101248;-84
2021/07/16 09:05:47;;;;;;;6.97;4.88;;;;;;;39.73;33.02;100094.22;4913950;28;101096;-85
2021/07/16 09:08:18;;;;;;;6.75;5.25;;;;;;;39.67;33.25;100100.72;4914166;28;96678;-85
2021/07/16 09:10:48;;;;;;;7.65;4.20;;;;;;;39.76;33.24;100073.69;4930758;28;97860;-84
2021/07/16 09:13:14;;;;;;;15.45;4.20;;;;;;;39.45;33.48;100080.56;4881524;28;102041;-84
2021/07/16 09:15:47;;;;;;;6.35;4.10;;;;;;;39.30;34.02;100108.59;4897713;28;100997;-84
2021/07/16 09:18:49;;;;;;;8.43;4.30;;;;;;;38.73;33.97;100082.75;4890320;28;96695;-84
2021/07/16 09:21:14;;;;;;;6.90;3.92;;;;;;;38.27;34.71;100098.19;4922525;28;96993;-85
2021/07/16 09:23:43;;;;;;;7.20;4.75;;;;;;;37.36;35.89;100092.09;4916872;28;101158;-85
2021/07/16 09:26:17;;;;;;;8.48;4.60;;;;;;;36.75;35.79;100084.94;4913090;28;101028;-85
2021/07/16 09:28:45;;;;;;;8.65;4.20;;;;;;;36.85;36.11;100104.34;4905469;28;97125;-84
2021/07/16 09:31:25;;;;;;;7.53;3.97;;;;;;;36.33;37.04;100109.34;4892802;28;97399;-84
2021/07/16 09:33:52;;;;;;;9.43;4.68;;;;;;;36.10;37.37;100110.00;4879098;28;101048;-84
2021/07/16 09:36:38;;;;;;;5.93;4.32;;;;;;;35.69;38.08;100103.16;4876105;28;101097;-84
2021/07/16 09:39:09;;;;;;;7.57;5.13;;;;;;;35.31;37.76;100112.22;4900770;28;97163;-84
2021/07/16 09:41:50;;;;;;;7.25;4.68;;;;;;;34.60;39.72;100117.78;4887372;28;97716;-85
2021/07/16 09:44:27;;;;;;;7.90;5.07;;;;;;;33.72;41.39;100097.09;4908787;28;100549;-85
2021/07/16 09:47:09;;;;;;;10.40;5.20;;;;;;;33.53;42.19;100106.91;4897263;28;101226;-86
2021/07/16 09:49:35;;;;;;;9.48;4.93;;;;;;;33.70;41.80;100114.66;4912802;28;97781;-85
2021/07/16 09:52:12;;;;;;;7.90;4.68;;;;;;;33.28;42.00;100120.22;4912823;28;96924;-85
2021/07/16 09:55:09;;;;;;;10.45;3.90;;;;;;;33.21;41.38;100123.97;4913435;28;101303;-85
2021/07/16 09:57:41;;;;;;;7.13;4.10;;;;;;;33.28;41.92;100128.38;4896346;28;101454;-86
2021/07/16 10:00:27;;;;;;;10.43;4.70;;;;;;;32.77;42.44;100103.47;4897847;28;96899;-86
2021/07/16 10:02:54;;;;;;;5.65;4.00;;;;;;;32.91;41.98;100118.81;4910718;28;97452;-86
2021/07/16 10:05:20;;;;;;;5.03;3.78;;;;;;;33.19;40.23;100129.59;4892628;28;98270;-85
2021/07/16 10:07:46;;;;;;;7.97;4.13;;;;;;;33.20;40.74;100125.00;4896641;28;101511;-84
2021/07/16 10:10:18;;;;;;;11.90;4.50;;;;;;;33.09;41.43;100129.16;4923677;28;96684;-84
2021/07/16 10:12:44;;;;;;;8.57;4.68;;;;;;;33.17;42.18;100128.13;4900698;28;97000;-84
2021/07/16 10:15:11;;;;;;;11.45;5.10;;;;;;;33.23;42.01;100133.59;4916501;28;98193;-84
2021/07/16 10:17:38;;;;;;;8.70;5.18;;;;;;;33.05;42.20;100136.88;4917030;28;101244;-85
2021/07/16 10:20:10;;;;;;;6.45;4.07;;;;;;;32.80;42.14;100138.41;4917095;28;96613;-89
2021/07/16 10:22:39;;;;;;;7.07;5.22;;;;;;;32.90;41.96;100117.97;4934729;28;96966;-89
2021/07/16 10:25:08;;;;;;;9.25;5.35;;;;;;;32.68;42.10;100130.00;4917818;28;98068;-87
2021/07/16 10:27:34;;;;;;;7.88;5.53;;;;;;;32.67;42.48;100122.88;4934696;28;98105;-88
2021/07/16 10:30:11;;;;;;;8.00;5.15;;;;;;;32.76;43.15;100127.09;4901947;28;96702;-88
2021/07/16 10:32:42;;;;;;;10.02;5.50;;;;;;;32.56;43.14;100134.31;4917841;28;96717;-87
2021/07/16 10:35:18;;;;;;;7.38;4.65;;;;;;;32.55;43.11;100130.75;4928610;28;98538;-89
2021/07/16 10:37:44;;;;;;;8.40;5.00;;;;;;;32.31;43.98;100123.03;4937831;28;98519;-89
2021/07/16 10:40:36;;;;;;;10.30;4.85;;;;;;;32.18;43.89;100132.78;4911464;28;97374;-89
2021/07/16 10:43:03;;;;;;;6.13;4.93;;;;;;;32.25;44.49;100116.53;4909046;28;97088;-88
2021/07/16 10:45:35;;;;;;;7.75;4.68;;;;;;;32.22;45.00;100134.03;4879164;28;101165;-87
2021/07/16 10:48:13;;;;;;;8.82;4.93;;;;;;;31.97;44.99;100100.22;4894466;28;98994;-88
2021/07/16 10:50:40;;;;;;;10.40;4.63;;;;;;;32.15;45.08;100116.88;4895480;28;96826;-88
2021/07/16 10:53:08;;;;;;;7.97;4.90;;;;;;;32.04;45.32;100101.13;4895710;28;96894;-87
2021/07/16 10:55:36;;;;;;;5.10;4.38;;;;;;;32.11;44.59;100133.75;4894624;28;98020;-87
2021/07/16 10:58:25;;;;;;;9.52;4.68;;;;;;;32.10;44.67;100122.06;4910607;28;99849;-88
2021/07/16 11:00:55;;;;;;;8.02;4.65;;;;;;;32.03;43.28;100113.03;4915608;28;96916;-87
2021/07/16 11:03:23;;;;;;;10.32;4.75;;;;;;;31.88;42.91;100123.09;4931870;28;97352;-88
2021/07/16 11:05:49;;;;;;;6.07;4.60;;;;;;;31.72;43.55;100095.22;4916223;28;98024;-88
2021/07/16 11:08:32;;;;;;;7.78;5.03;;;;;;;31.83;44.80;100114.72;4916058;28;101131;-89
2021/07/16 11:11:04;;;;;;;7.20;5.18;;;;;;;31.71;45.09;100117.97;4933360;28;97281;-90
2021/07/16 11:13:37;;;;;;;9.00;4.95;;;;;;;31.73;44.62;100123.19;4930772;28;97884;-88
2021/07/16 11:16:35;;;;;;;8.10;5.30;;;;;;;31.77;44.23;100113.63;4896748;28;98616;-88
2021/07/16 11:19:04;;;;;;;5.13;4.60;;;;;;;31.84;45.87;100110.97;4913643;28;101672;-88